sensor_id;sensor_type;location;lat;lon;timestamp;pressure;altitude;pressure_sealevel;temperature;humidity
8320;BME280;4197;42.130;24.746;2023-04-26T00:01:13;98546.75;;;12.01;100.00
8320;BME280;4197;42.130;24.746;2023-04-26T00:03:42;98541.28;;;11.94;100.00
8320;BME280;4197;42.130;24.746;2023-04-26T00:06:11;98543.63;;;11.92;100.00
8320;BME280;4197;42.130;24.746;2023-04-26T00:08:40;98543.25;;;11.97;100.00
8320;BME280;4197;42.130;24.746;2023-04-26T00:11:09;98543.25;;;11.97;100.00
8320;BME280;4197;42.130;24.746;2023-04-26T00:13:37;98538.97;;;12.03;100.00
8320;BME280;4197;42.130;24.746;2023-04-26T00:16:06;98533.91;;;11.91;100.00
8320;BME280;4197;42.130;24.746;2023-04-26T00:18:35;98528.09;;;11.96;100.00
8320;BME280;4197;42.130;24.746;2023-04-26T00:21:03;98528.50;;;11.98;100.00
8320;BME280;4197;42.130;24.746;2023-04-26T00:23:31;98526.91;;;11.94;100.00
8320;BME280;4197;42.130;24.746;2023-04-26T00:26:03;98512.56;;;11.93;100.00
8320;BME280;4197;42.130;24.746;2023-04-26T00:28:31;98521.88;;;11.99;100.00
8320;BME280;4197;42.130;24.746;2023-04-26T00:31:00;98521.09;;;12.02;100.00
8320;BME280;4197;42.130;24.746;2023-04-26T00:33:29;98517.25;;;12.11;100.00
8320;BME280;4197;42.130;24.746;2023-04-26T00:35:57;98514.53;;;12.11;100.00
8320;BME280;4197;42.130;24.746;2023-04-26T00:38:27;98509.47;;;11.98;100.00
8320;BME280;4197;42.130;24.746;2023-04-26T00:40:55;98508.31;;;11.99;100.00
8320;BME280;4197;42.130;24.746;2023-04-26T00:43:23;98490.44;;;12.02;100.00
8320;BME280;4197;42.130;24.746;2023-04-26T00:45:51;98489.69;;;12.01;100.00
8320;BME280;4197;42.130;24.746;2023-04-26T00:48:20;98484.25;;;12.05;100.00
8320;BME280;4197;42.130;24.746;2023-04-26T00:50:50;98478.03;;;12.01;100.00
8320;BME280;4197;42.130;24.746;2023-04-26T00:53:19;98476.06;;;11.91;100.00
8320;BME280;4197;42.130;24.746;2023-04-26T00:55:48;98474.53;;;11.86;100.00
8320;BME280;4197;42.130;24.746;2023-04-26T00:58:17;98477.63;;;11.99;100.00
8320;BME280;4197;42.130;24.746;2023-04-26T01:00:45;98475.72;;;12.07;100.00
8320;BME280;4197;42.130;24.746;2023-04-26T01:03:16;98471.44;;;12.02;100.00
8320;BME280;4197;42.130;24.746;2023-04-26T01:05:45;98472.97;;;11.96;100.00
8320;BME280;4197;42.130;24.746;2023-04-26T01:08:15;98475.69;;;11.96;100.00
8320;BME280;4197;42.130;24.746;2023-04-26T01:10:47;98470.25;;;11.99;100.00
8320;BME280;4197;42.130;24.746;2023-04-26T01:13:16;98472.59;;;11.90;100.00
8320;BME280;4197;42.130;24.746;2023-04-26T01:15:44;98476.44;;;11.86;100.00
8320;BME280;4197;42.130;24.746;2023-04-26T01:18:13;98476.06;;;11.83;100.00
8320;BME280;4197;42.130;24.746;2023-04-26T01:20:41;98475.66;;;11.78;100.00
8320;BME280;4197;42.130;24.746;2023-04-26T01:23:10;98481.50;;;11.87;100.00
8320;BME280;4197;42.130;24.746;2023-04-26T01:25:39;98475.25;;;11.83;100.00
8320;BME280;4197;42.130;24.746;2023-04-26T01:28:07;98472.94;;;11.78;100.00
8320;BME280;4197;42.130;24.746;2023-04-26T01:30:35;98472.91;;;11.71;100.00
8320;BME280;4197;42.130;24.746;2023-04-26T01:33:04;98466.34;;;11.75;100.00
8320;BME280;4197;42.130;24.746;2023-04-26T01:35:32;98465.53;;;11.71;100.00
8320;BME280;4197;42.130;24.746;2023-04-26T01:38:00;98463.22;;;11.70;100.00
8320;BME280;4197;42.130;24.746;2023-04-26T01:40:31;98463.56;;;11.57;100.00
8320;BME280;4197;42.130;24.746;2023-04-26T01:42:59;98458.13;;;11.50;100.00
8320;BME280;4197;42.130;24.746;2023-04-26T01:45:28;98451.16;;;11.53;100.00
8320;BME280;4197;42.130;24.746;2023-04-26T01:47:57;98449.22;;;11.57;100.00
8320;BME280;4197;42.130;24.746;2023-04-26T01:50:25;98443.75;;;11.50;100.00
8320;BME280;4197;42.130;24.746;2023-04-26T01:52:53;98445.34;;;11.54;100.00
8320;BME280;4197;42.130;24.746;2023-04-26T01:55:21;98453.88;;;11.56;100.00
8320;BME280;4197;42.130;24.746;2023-04-26T01:57:51;98453.47;;;11.58;100.00
8320;BME280;4197;42.130;24.746;2023-04-26T02:00:19;98449.19;;;11.50;100.00
8320;BME280;4197;42.130;24.746;2023-04-26T02:02:47;98451.53;;;11.51;100.00
8320;BME280;4197;42.130;24.746;2023-04-26T02:05:16;98446.47;;;11.46;100.00
8320;BME280;4197;42.130;24.746;2023-04-26T02:07:44;98452.69;;;11.47;100.00
8320;BME280;4197;42.130;24.746;2023-04-26T02:10:12;98458.09;;;11.47;100.00
8320;BME280;4197;42.130;24.746;2023-04-26T02:12:40;98465.06;;;11.44;100.00
8320;BME280;4197;42.130;24.746;2023-04-26T02:15:10;98459.28;;;11.42;100.00
8320;BME280;4197;42.130;24.746;2023-04-26T02:17:38;98463.91;;;11.42;100.00
8320;BME280;4197;42.130;24.746;2023-04-26T02:20:08;98461.56;;;11.33;100.00
8320;BME280;4197;42.130;24.746;2023-04-26T02:22:37;98464.25;;;11.29;100.00
8320;BME280;4197;42.130;24.746;2023-04-26T02:25:05;98473.59;;;11.35;100.00
8320;BME280;4197;42.130;24.746;2023-04-26T02:27:33;98467.41;;;11.46;100.00
8320;BME280;4197;42.130;24.746;2023-04-26T02:30:02;98470.13;;;11.49;100.00
8320;BME280;4197;42.130;24.746;2023-04-26T02:32:32;98470.50;;;11.41;100.00
8320;BME280;4197;42.130;24.746;2023-04-26T02:35:00;98473.22;;;11.33;100.00
8320;BME280;4197;42.130;24.746;2023-04-26T02:37:28;98463.84;;;11.24;100.00
8320;BME280;4197;42.130;24.746;2023-04-26T02:39:57;98470.03;;;11.21;100.00
8320;BME280;4197;42.130;24.746;2023-04-26T02:42:25;98472.34;;;11.19;100.00
8320;BME280;4197;42.130;24.746;2023-04-26T02:44:53;98474.28;;;11.14;100.00
8320;BME280;4197;42.130;24.746;2023-04-26T02:47:21;98479.00;;;11.32;100.00
8320;BME280;4197;42.130;24.746;2023-04-26T02:49:51;98480.56;;;11.33;100.00
8320;BME280;4197;42.130;24.746;2023-04-26T02:52:19;98479.00;;;11.32;100.00
8320;BME280;4197;42.130;24.746;2023-04-26T02:54:47;98475.13;;;11.33;100.00
8320;BME280;4197;42.130;24.746;2023-04-26T02:57:15;98482.09;;;11.27;100.00
8320;BME280;4197;42.130;24.746;2023-04-26T02:59:43;98486.78;;;11.37;100.00
8320;BME280;4197;42.130;24.746;2023-04-26T03:02:12;98486.78;;;11.33;100.00
8320;BME280;4197;42.130;24.746;2023-04-26T03:04:40;98484.78;;;11.27;100.00
8320;BME280;4197;42.130;24.746;2023-04-26T03:07:10;98475.13;;;11.26;100.00
8320;BME280;4197;42.130;24.746;2023-04-26T03:09:38;98465.03;;;11.30;100.00
8320;BME280;4197;42.130;24.746;2023-04-26T03:12:07;98464.22;;;11.22;100.00
8320;BME280;4197;42.130;24.746;2023-04-26T03:14:35;98457.25;;;11.21;100.00
8320;BME280;4197;42.130;24.746;2023-04-26T03:17:03;98461.88;;;11.13;100.00
8320;BME280;4197;42.130;24.746;2023-04-26T03:19:31;98454.53;;;11.18;100.00
8320;BME280;4197;42.130;24.746;2023-04-26T03:22:00;98455.31;;;11.18;100.00
8320;BME280;4197;42.130;24.746;2023-04-26T03:24:30;98458.78;;;11.22;100.00
8320;BME280;4197;42.130;24.746;2023-04-26T03:26:58;98463.50;;;11.29;100.00
8320;BME280;4197;42.130;24.746;2023-04-26T03:29:26;98454.94;;;11.27;100.00
8320;BME280;4197;42.130;24.746;2023-04-26T03:31:55;98462.69;;;11.21;100.00
8320;BME280;4197;42.130;24.746;2023-04-26T03:34:23;98463.84;;;11.27;100.00
8320;BME280;4197;42.130;24.746;2023-04-26T03:36:53;98467.69;;;11.19;100.00
8320;BME280;4197;42.130;24.746;2023-04-26T03:39:21;98472.72;;;11.10;100.00
8320;BME280;4197;42.130;24.746;2023-04-26T03:41:50;98480.84;;;11.13;100.00
8320;BME280;4197;42.130;24.746;2023-04-26T03:44:19;98482.03;;;11.16;100.00
8320;BME280;4197;42.130;24.746;2023-04-26T03:46:47;98487.47;;;11.16;100.00
8320;BME280;4197;42.130;24.746;2023-04-26T03:49:15;98485.09;;;11.11;100.00
8320;BME280;4197;42.130;24.746;2023-04-26T03:51:43;98495.19;;;11.10;100.00
8320;BME280;4197;42.130;24.746;2023-04-26T03:54:11;98490.13;;;11.05;100.00
8320;BME280;4197;42.130;24.746;2023-04-26T03:56:40;98503.66;;;10.98;100.00
8320;BME280;4197;42.130;24.746;2023-04-26T03:59:10;98508.34;;;11.05;100.00
8320;BME280;4197;42.130;24.746;2023-04-26T04:01:38;98502.91;;;11.01;100.00
8320;BME280;4197;42.130;24.746;2023-04-26T04:04:07;98503.66;;;10.98;100.00
8320;BME280;4197;42.130;24.746;2023-04-26T04:06:35;98502.84;;;10.94;100.00
8320;BME280;4197;42.130;24.746;2023-04-26T04:09:04;98493.25;;;11.07;100.00
8320;BME280;4197;42.130;24.746;2023-04-26T04:11:32;98507.56;;;11.08;100.00
8320;BME280;4197;42.130;24.746;2023-04-26T04:14:01;98497.53;;;11.15;100.00
8320;BME280;4197;42.130;24.746;2023-04-26T04:16:30;98491.34;;;11.11;100.00
8320;BME280;4197;42.130;24.746;2023-04-26T04:18:58;98495.94;;;11.07;100.00
8320;BME280;4197;42.130;24.746;2023-04-26T04:21:27;98503.72;;;11.12;100.00
8320;BME280;4197;42.130;24.746;2023-04-26T04:24:13;98502.19;;;11.19;100.00
8320;BME280;4197;42.130;24.746;2023-04-26T04:26:42;98496.78;;;11.15;100.00
8320;BME280;4197;42.130;24.746;2023-04-26T04:29:10;98501.44;;;11.14;100.00
8320;BME280;4197;42.130;24.746;2023-04-26T04:31:40;98500.66;;;11.18;100.00
8320;BME280;4197;42.130;24.746;2023-04-26T04:34:08;98501.44;;;11.18;100.00
8320;BME280;4197;42.130;24.746;2023-04-26T04:36:37;98494.13;;;11.33;100.00
8320;BME280;4197;42.130;24.746;2023-04-26T04:39:06;98506.16;;;11.32;100.00
8320;BME280;4197;42.130;24.746;2023-04-26T04:41:39;98505.78;;;11.33;100.00
8320;BME280;4197;42.130;24.746;2023-04-26T04:44:13;98501.16;;;11.48;100.00
8320;BME280;4197;42.130;24.746;2023-04-26T04:46:43;98500.03;;;11.60;100.00
8320;BME280;4197;42.130;24.746;2023-04-26T04:49:12;98510.19;;;11.81;100.00
8320;BME280;4197;42.130;24.746;2023-04-26T04:51:40;98514.53;;;12.03;100.00
8320;BME280;4197;42.130;24.746;2023-04-26T04:54:10;98502.13;;;12.24;100.00
8320;BME280;4197;42.130;24.746;2023-04-26T04:56:38;98513.38;;;12.40;100.00
8320;BME280;4197;42.130;24.746;2023-04-26T04:59:07;98514.19;;;12.44;100.00
8320;BME280;4197;42.130;24.746;2023-04-26T05:01:35;98518.03;;;12.54;100.00
8320;BME280;4197;42.130;24.746;2023-04-26T05:04:05;98511.03;;;12.82;100.00
8320;BME280;4197;42.130;24.746;2023-04-26T05:06:34;98511.41;;;12.84;100.00
8320;BME280;4197;42.130;24.746;2023-04-26T05:09:02;98511.41;;;12.94;100.00
8320;BME280;4197;42.130;24.746;2023-04-26T05:11:31;98508.25;;;13.07;100.00
8320;BME280;4197;42.130;24.746;2023-04-26T05:13:59;98513.25;;;13.26;100.00
8320;BME280;4197;42.130;24.746;2023-04-26T05:16:28;98509.34;;;13.42;100.00
8320;BME280;4197;42.130;24.746;2023-04-26T05:18:56;98512.06;;;13.34;100.00
8320;BME280;4197;42.130;24.746;2023-04-26T05:21:26;98506.22;;;13.32;100.00
8320;BME280;4197;42.130;24.746;2023-04-26T05:23:54;98501.53;;;13.44;100.00
8320;BME280;4197;42.130;24.746;2023-04-26T05:26:23;98502.28;;;13.48;100.00
8320;BME280;4197;42.130;24.746;2023-04-26T05:28:51;98501.41;;;13.72;100.00
8320;BME280;4197;42.130;24.746;2023-04-26T05:31:20;98508.38;;;13.80;100.00
8320;BME280;4197;42.130;24.746;2023-04-26T05:33:49;98504.78;;;13.94;100.00
8320;BME280;4197;42.130;24.746;2023-04-26T05:36:18;98498.06;;;14.06;100.00
8320;BME280;4197;42.130;24.746;2023-04-26T05:38:48;98505.06;;;14.11;100.00
8320;BME280;4197;42.130;24.746;2023-04-26T05:41:16;98505.44;;;14.09;100.00
8320;BME280;4197;42.130;24.746;2023-04-26T05:43:45;98510.88;;;14.13;100.00
8320;BME280;4197;42.130;24.746;2023-04-26T05:46:14;98512.03;;;14.15;100.00
8320;BME280;4197;42.130;24.746;2023-04-26T05:48:42;98506.44;;;14.33;100.00
8320;BME280;4197;42.130;24.746;2023-04-26T05:51:11;98502.50;;;14.38;100.00
8320;BME280;4197;42.130;24.746;2023-04-26T05:53:39;98509.09;;;14.44;100.00
8320;BME280;4197;42.130;24.746;2023-04-26T05:56:09;98511.66;;;14.65;100.00
8320;BME280;4197;42.130;24.746;2023-04-26T05:58:37;98508.63;;;14.56;100.00
8320;BME280;4197;42.130;24.746;2023-04-26T06:01:06;98512.53;;;14.55;100.00
8320;BME280;4197;42.130;24.746;2023-04-26T06:03:34;98515.56;;;14.64;100.00
8320;BME280;4197;42.130;24.746;2023-04-26T06:06:03;98517.47;;;14.67;100.00
8320;BME280;4197;42.130;24.746;2023-04-26T06:08:32;98521.41;;;14.66;100.00
8320;BME280;4197;42.130;24.746;2023-04-26T06:11:00;98513.44;;;14.83;100.00
8320;BME280;4197;42.130;24.746;2023-04-26T06:13:30;98508.56;;;15.01;100.00
8320;BME280;4197;42.130;24.746;2023-04-26T06:15:58;98511.50;;;15.17;100.00
8320;BME280;4197;42.130;24.746;2023-04-26T06:18:26;98509.53;;;15.22;100.00
8320;BME280;4197;42.130;24.746;2023-04-26T06:20:54;98504.41;;;15.27;100.00
8320;BME280;4197;42.130;24.746;2023-04-26T06:23:23;98505.13;;;15.31;100.00
8320;BME280;4197;42.130;24.746;2023-04-26T06:25:51;98510.19;;;15.33;100.00
8320;BME280;4197;42.130;24.746;2023-04-26T06:28:19;98517.94;;;15.38;100.00
8320;BME280;4197;42.130;24.746;2023-04-26T06:30:48;98508.94;;;15.37;100.00
8320;BME280;4197;42.130;24.746;2023-04-26T06:33:17;98506.19;;;15.41;100.00
8320;BME280;4197;42.130;24.746;2023-04-26T06:35:45;98508.03;;;15.48;100.00
8320;BME280;4197;42.130;24.746;2023-04-26T06:38:13;98508.31;;;15.57;100.00
8320;BME280;4197;42.130;24.746;2023-04-26T06:40:42;98504.34;;;15.61;100.00
8320;BME280;4197;42.130;24.746;2023-04-26T06:43:10;98510.91;;;15.37;100.00
8320;BME280;4197;42.130;24.746;2023-04-26T06:45:38;98510.94;;;15.33;100.00
8320;BME280;4197;42.130;24.746;2023-04-26T06:48:10;98506.31;;;15.27;100.00
8320;BME280;4197;42.130;24.746;2023-04-26T06:50:38;98505.13;;;15.31;100.00
8320;BME280;4197;42.130;24.746;2023-04-26T06:53:14;98507.72;;;15.42;100.00
8320;BME280;4197;42.130;24.746;2023-04-26T06:55:42;98509.22;;;15.47;100.00
8320;BME280;4197;42.130;24.746;2023-04-26T06:58:11;98506.84;;;15.49;100.00
8320;BME280;4197;42.130;24.746;2023-04-26T07:00:39;98501.34;;;15.52;100.00
8320;BME280;4197;42.130;24.746;2023-04-26T07:03:07;98507.09;;;15.61;100.00
8320;BME280;4197;42.130;24.746;2023-04-26T07:05:39;98507.59;;;15.53;100.00
8320;BME280;4197;42.130;24.746;2023-04-26T07:08:07;98507.47;;;15.60;100.00
8320;BME280;4197;42.130;24.746;2023-04-26T07:10:35;98510.53;;;15.69;100.00
8320;BME280;4197;42.130;24.746;2023-04-26T07:13:04;98517.03;;;15.79;100.00
8320;BME280;4197;42.130;24.746;2023-04-26T07:15:35;98522.88;;;15.81;100.00
8320;BME280;4197;42.130;24.746;2023-04-26T07:18:03;98518.94;;;15.82;100.00
8320;BME280;4197;42.130;24.746;2023-04-26T07:20:31;98516.19;;;15.82;100.00
8320;BME280;4197;42.130;24.746;2023-04-26T07:23:00;98521.00;;;16.01;100.00
8320;BME280;4197;42.130;24.746;2023-04-26T07:25:28;98521.91;;;16.22;100.00
8320;BME280;4197;42.130;24.746;2023-04-26T07:27:57;98520.47;;;16.37;100.00
8320;BME280;4197;42.130;24.746;2023-04-26T07:30:25;98525.09;;;16.40;100.00
8320;BME280;4197;42.130;24.746;2023-04-26T07:32:53;98523.47;;;16.46;100.00
8320;BME280;4197;42.130;24.746;2023-04-26T07:35:22;98525.25;;;16.57;100.00
8320;BME280;4197;42.130;24.746;2023-04-26T07:37:51;98524.59;;;16.72;87.25
8320;BME280;4197;42.130;24.746;2023-04-26T07:40:21;98529.22;;;16.76;85.90
8320;BME280;4197;42.130;24.746;2023-04-26T07:42:52;98535.91;;;16.75;85.58
8320;BME280;4197;42.130;24.746;2023-04-26T07:45:20;98532.44;;;16.70;83.89
8320;BME280;4197;42.130;24.746;2023-04-26T07:47:49;98526.44;;;16.56;84.98
8320;BME280;4197;42.130;24.746;2023-04-26T07:50:17;98531.00;;;16.62;85.30
8320;BME280;4197;42.130;24.746;2023-04-26T07:52:45;98525.97;;;16.61;86.37
8320;BME280;4197;42.130;24.746;2023-04-26T07:55:14;98527.94;;;16.60;86.19
8320;BME280;4197;42.130;24.746;2023-04-26T07:57:44;98533.50;;;16.53;87.00
8320;BME280;4197;42.130;24.746;2023-04-26T08:00:14;98530.91;;;16.69;86.02
8320;BME280;4197;42.130;24.746;2023-04-26T08:02:44;98531.44;;;16.84;82.29
8320;BME280;4197;42.130;24.746;2023-04-26T08:05:13;98528.09;;;16.97;84.44
8320;BME280;4197;42.130;24.746;2023-04-26T08:07:42;98527.47;;;17.09;80.77
8320;BME280;4197;42.130;24.746;2023-04-26T08:10:10;98523.00;;;17.19;79.85
8320;BME280;4197;42.130;24.746;2023-04-26T08:12:38;98522.00;;;17.29;80.22
8320;BME280;4197;42.130;24.746;2023-04-26T08:15:10;98523.28;;;17.44;78.62
8320;BME280;4197;42.130;24.746;2023-04-26T08:17:38;98516.31;;;17.39;78.93
8320;BME280;4197;42.130;24.746;2023-04-26T08:20:08;98512.66;;;17.06;82.47
8320;BME280;4197;42.130;24.746;2023-04-26T08:22:36;98517.59;;;17.15;81.99
8320;BME280;4197;42.130;24.746;2023-04-26T08:25:06;98507.94;;;17.07;84.22
8320;BME280;4197;42.130;24.746;2023-04-26T08:27:35;98510.84;;;17.00;81.80
8320;BME280;4197;42.130;24.746;2023-04-26T08:30:05;98501.97;;;16.45;85.91
8320;BME280;4197;42.130;24.746;2023-04-26T08:32:35;98506.47;;;16.82;84.18
8320;BME280;4197;42.130;24.746;2023-04-26T08:35:03;98509.88;;;17.10;78.57
8320;BME280;4197;42.130;24.746;2023-04-26T08:37:32;98506.28;;;17.13;70.87
8320;BME280;4197;42.130;24.746;2023-04-26T08:40:01;98498.34;;;17.19;69.83
8320;BME280;4197;42.130;24.746;2023-04-26T08:42:30;98500.09;;;17.29;66.07
8320;BME280;4197;42.130;24.746;2023-04-26T08:45:02;98495.63;;;17.19;62.45
8320;BME280;4197;42.130;24.746;2023-04-26T08:47:39;98500.72;;;16.97;62.96
8320;BME280;4197;42.130;24.746;2023-04-26T08:50:10;98508.66;;;17.11;62.80
8320;BME280;4197;42.130;24.746;2023-04-26T08:52:41;98494.50;;;17.16;64.54
8320;BME280;4197;42.130;24.746;2023-04-26T08:55:10;98495.25;;;17.36;64.11
8320;BME280;4197;42.130;24.746;2023-04-26T08:57:41;98489.63;;;17.44;63.37
8320;BME280;4197;42.130;24.746;2023-04-26T09:00:14;98485.81;;;17.37;63.50
8320;BME280;4197;42.130;24.746;2023-04-26T09:02:47;98488.63;;;17.54;61.49
8320;BME280;4197;42.130;24.746;2023-04-26T09:05:17;98490.28;;;17.68;60.14
8320;BME280;4197;42.130;24.746;2023-04-26T09:07:49;98488.91;;;17.79;57.18
8320;BME280;4197;42.130;24.746;2023-04-26T09:10:20;98480.34;;;17.94;57.14
8320;BME280;4197;42.130;24.746;2023-04-26T09:12:50;98484.13;;;18.00;54.35
8320;BME280;4197;42.130;24.746;2023-04-26T09:15:20;98482.59;;;18.15;54.16
8320;BME280;4197;42.130;24.746;2023-04-26T09:17:51;98483.63;;;18.38;54.33
8320;BME280;4197;42.130;24.746;2023-04-26T09:20:21;98483.00;;;18.63;53.43
8320;BME280;4197;42.130;24.746;2023-04-26T09:22:51;98485.06;;;18.75;51.47
8320;BME280;4197;42.130;24.746;2023-04-26T09:25:26;98478.94;;;18.67;53.12
8320;BME280;4197;42.130;24.746;2023-04-26T09:27:56;98476.38;;;18.77;53.37
8320;BME280;4197;42.130;24.746;2023-04-26T09:30:24;98483.56;;;18.87;53.51
8320;BME280;4197;42.130;24.746;2023-04-26T09:32:56;98476.63;;;18.82;52.70
8320;BME280;4197;42.130;24.746;2023-04-26T09:35:26;98475.53;;;18.80;54.18
8320;BME280;4197;42.130;24.746;2023-04-26T09:37:59;98475.53;;;18.80;54.24
8320;BME280;4197;42.130;24.746;2023-04-26T09:40:37;98483.41;;;18.78;54.47
8320;BME280;4197;42.130;24.746;2023-04-26T09:43:08;98479.63;;;18.71;54.24
8320;BME280;4197;42.130;24.746;2023-04-26T09:45:43;98473.66;;;18.77;55.05
8320;BME280;4197;42.130;24.746;2023-04-26T09:48:15;98473.56;;;19.09;54.10
8320;BME280;4197;42.130;24.746;2023-04-26T09:50:44;98463.63;;;19.41;53.63
8320;BME280;4197;42.130;24.746;2023-04-26T09:53:24;98460.56;;;19.52;53.92
8320;BME280;4197;42.130;24.746;2023-04-26T09:55:54;98462.81;;;19.82;53.35
8320;BME280;4197;42.130;24.746;2023-04-26T09:58:22;98462.09;;;20.17;51.09
8320;BME280;4197;42.130;24.746;2023-04-26T10:00:51;98459.59;;;20.10;50.75
8320;BME280;4197;42.130;24.746;2023-04-26T10:03:22;98458.03;;;20.09;51.52
8320;BME280;4197;42.130;24.746;2023-04-26T10:05:50;98459.81;;;20.15;52.21
8320;BME280;4197;42.130;24.746;2023-04-26T10:08:19;98450.44;;;20.13;52.10
8320;BME280;4197;42.130;24.746;2023-04-26T10:10:48;98443.81;;;20.23;51.68
8320;BME280;4197;42.130;24.746;2023-04-26T10:13:18;98445.41;;;19.86;52.24
8320;BME280;4197;42.130;24.746;2023-04-26T10:15:47;98435.72;;;19.81;51.79
8320;BME280;4197;42.130;24.746;2023-04-26T10:18:15;98450.38;;;19.91;52.22
8320;BME280;4197;42.130;24.746;2023-04-26T10:20:48;98438.25;;;19.88;51.43
8320;BME280;4197;42.130;24.746;2023-04-26T10:23:19;98437.66;;;20.19;49.81
8320;BME280;4197;42.130;24.746;2023-04-26T10:25:52;98436.00;;;20.21;49.86
8320;BME280;4197;42.130;24.746;2023-04-26T10:28:54;98434.28;;;20.15;48.33
8320;BME280;4197;42.130;24.746;2023-04-26T10:34:32;98430.13;;;19.85;48.76
8320;BME280;4197;42.130;24.746;2023-04-26T10:37:09;98430.53;;;19.57;50.10
8320;BME280;4197;42.130;24.746;2023-04-26T10:39:38;98440.59;;;19.09;50.58
8320;BME280;4197;42.130;24.746;2023-04-26T10:42:20;98441.28;;;18.68;52.62
8320;BME280;4197;42.130;24.746;2023-04-26T10:44:53;98440.09;;;18.53;55.41
8320;BME280;4197;42.130;24.746;2023-04-26T10:47:27;98439.88;;;18.31;56.98
8320;BME280;4197;42.130;24.746;2023-04-26T10:50:07;98441.75;;;18.17;57.73
8320;BME280;4197;42.130;24.746;2023-04-26T10:52:38;98429.75;;;18.27;56.59
8320;BME280;4197;42.130;24.746;2023-04-26T10:55:37;98440.22;;;18.16;58.19
8320;BME280;4197;42.130;24.746;2023-04-26T10:58:25;98438.50;;;18.06;61.11
8320;BME280;4197;42.130;24.746;2023-04-26T11:01:14;98435.88;;;18.02;59.68
8320;BME280;4197;42.130;24.746;2023-04-26T11:04:00;98436.41;;;17.77;59.19
8320;BME280;4197;42.130;24.746;2023-04-26T11:06:46;98438.63;;;17.66;59.19
8320;BME280;4197;42.130;24.746;2023-04-26T11:09:35;98443.66;;;17.88;57.15
8320;BME280;4197;42.130;24.746;2023-04-26T11:12:10;98444.03;;;17.70;58.29
8320;BME280;4197;42.130;24.746;2023-04-26T11:14:40;98436.53;;;17.54;59.12
8320;BME280;4197;42.130;24.746;2023-04-26T11:17:09;98438.09;;;17.55;59.75
8320;BME280;4197;42.130;24.746;2023-04-26T11:19:40;98449.88;;;17.72;59.85
8320;BME280;4197;42.130;24.746;2023-04-26T11:22:09;98453.06;;;17.87;59.73
8320;BME280;4197;42.130;24.746;2023-04-26T11:24:39;98449.81;;;17.92;59.63
8320;BME280;4197;42.130;24.746;2023-04-26T11:27:08;98451.81;;;17.91;58.58
8320;BME280;4197;42.130;24.746;2023-04-26T11:29:37;98455.72;;;17.90;58.10
8320;BME280;4197;42.130;24.746;2023-04-26T11:32:05;98451.56;;;18.02;56.17
8320;BME280;4197;42.130;24.746;2023-04-26T11:34:37;98451.28;;;17.96;57.62
8320;BME280;4197;42.130;24.746;2023-04-26T11:37:05;98452.41;;;18.15;55.49
8320;BME280;4197;42.130;24.746;2023-04-26T11:39:35;98449.69;;;18.15;54.85
8320;BME280;4197;42.130;24.746;2023-04-26T11:42:05;98447.34;;;18.30;54.97
8320;BME280;4197;42.130;24.746;2023-04-26T11:44:35;98458.56;;;18.19;53.81
8320;BME280;4197;42.130;24.746;2023-04-26T11:47:04;98460.03;;;18.08;53.78
8320;BME280;4197;42.130;24.746;2023-04-26T11:49:35;98465.88;;;18.10;53.03
8320;BME280;4197;42.130;24.746;2023-04-26T11:52:04;98465.50;;;17.91;54.27
8320;BME280;4197;42.130;24.746;2023-04-26T11:54:34;98468.09;;;17.82;54.66
8320;BME280;4197;42.130;24.746;2023-04-26T11:57:13;98476.84;;;17.73;55.81
8320;BME280;4197;42.130;24.746;2023-04-26T11:59:44;98481.50;;;17.56;55.90
8320;BME280;4197;42.130;24.746;2023-04-26T12:02:12;98479.72;;;17.50;56.66
8320;BME280;4197;42.130;24.746;2023-04-26T12:04:40;98478.84;;;17.53;56.08
8320;BME280;4197;42.130;24.746;2023-04-26T12:07:10;98478.94;;;17.49;57.11
8320;BME280;4197;42.130;24.746;2023-04-26T12:09:40;98483.13;;;17.54;56.05
8320;BME280;4197;42.130;24.746;2023-04-26T12:12:08;98480.84;;;17.52;56.37
8320;BME280;4197;42.130;24.746;2023-04-26T12:14:39;98476.13;;;17.53;56.55
8320;BME280;4197;42.130;24.746;2023-04-26T12:17:08;98474.63;;;17.48;56.56
8320;BME280;4197;42.130;24.746;2023-04-26T12:19:37;98471.25;;;17.24;56.87
8320;BME280;4197;42.130;24.746;2023-04-26T12:22:06;98473.19;;;17.44;55.85
8320;BME280;4197;42.130;24.746;2023-04-26T12:24:35;98479.28;;;17.51;56.36
8320;BME280;4197;42.130;24.746;2023-04-26T12:27:04;98488.34;;;17.68;54.08
8320;BME280;4197;42.130;24.746;2023-04-26T12:29:33;98475.09;;;17.83;53.72
8320;BME280;4197;42.130;24.746;2023-04-26T12:32:04;98478.47;;;17.91;60.57
8320;BME280;4197;42.130;24.746;2023-04-26T12:34:32;98477.00;;;17.86;62.91
8320;BME280;4197;42.130;24.746;2023-04-26T12:37:00;98468.16;;;17.78;67.29
8320;BME280;4197;42.130;24.746;2023-04-26T12:39:28;98468.47;;;17.44;66.17
8320;BME280;4197;42.130;24.746;2023-04-26T12:41:57;98471.03;;;17.35;64.61
8320;BME280;4197;42.130;24.746;2023-04-26T12:44:25;98477.91;;;17.43;58.74
8320;BME280;4197;42.130;24.746;2023-04-26T12:46:53;98483.09;;;16.98;60.14
8320;BME280;4197;42.130;24.746;2023-04-26T12:49:23;98474.91;;;16.50;62.48
8320;BME280;4197;42.130;24.746;2023-04-26T12:51:51;98469.31;;;16.58;63.90
8320;BME280;4197;42.130;24.746;2023-04-26T12:54:19;98471.94;;;16.41;62.82
8320;BME280;4197;42.130;24.746;2023-04-26T12:56:48;98465.16;;;16.26;64.82
8320;BME280;4197;42.130;24.746;2023-04-26T12:59:16;98473.38;;;16.26;65.62
8320;BME280;4197;42.130;24.746;2023-04-26T13:01:45;98462.84;;;16.24;66.00
8320;BME280;4197;42.130;24.746;2023-04-26T13:04:13;98473.09;;;16.44;65.48
8320;BME280;4197;42.130;24.746;2023-04-26T13:06:43;98470.28;;;16.47;64.27
8320;BME280;4197;42.130;24.746;2023-04-26T13:09:11;98470.94;;;16.55;63.83
8320;BME280;4197;42.130;24.746;2023-04-26T13:11:39;98472.34;;;16.87;63.44
8320;BME280;4197;42.130;24.746;2023-04-26T13:14:08;98468.47;;;16.84;63.95
8320;BME280;4197;42.130;24.746;2023-04-26T13:16:36;98465.13;;;16.97;62.64
8320;BME280;4197;42.130;24.746;2023-04-26T13:19:08;98463.34;;;17.06;62.69
8320;BME280;4197;42.130;24.746;2023-04-26T13:21:36;98463.50;;;17.19;61.40